sensor_id;sensor_type;location;lat;lon;timestamp;temperature;humidity
44695;DHT22;32845;59.422;17.930;2023-04-24T00:00:44;7.30;99.90
44695;DHT22;32845;59.422;17.930;2023-04-24T00:05:16;7.20;99.90
44695;DHT22;32845;59.422;17.930;2023-04-24T00:09:47;7.20;99.90
44695;DHT22;32845;59.422;17.930;2023-04-24T00:14:18;7.20;99.90
44695;DHT22;32845;59.422;17.930;2023-04-24T00:18:49;7.20;99.90
44695;DHT22;32845;59.422;17.930;2023-04-24T00:23:19;7.10;99.90
44695;DHT22;32845;59.422;17.930;2023-04-24T00:27:50;7.20;99.90
44695;DHT22;32845;59.422;17.930;2023-04-24T00:32:21;7.10;99.90
44695;DHT22;32845;59.422;17.930;2023-04-24T00:36:51;7.10;99.90
44695;DHT22;32845;59.422;17.930;2023-04-24T00:41:24;7.10;99.90
44695;DHT22;32845;59.422;17.930;2023-04-24T00:45:55;7.00;99.90
44695;DHT22;32845;59.422;17.930;2023-04-24T00:50:26;6.90;99.90
44695;DHT22;32845;59.422;17.930;2023-04-24T00:54:56;6.80;99.90
44695;DHT22;32845;59.422;17.930;2023-04-24T00:59:27;6.80;99.90
44695;DHT22;32845;59.422;17.930;2023-04-24T01:03:59;6.70;99.90
44695;DHT22;32845;59.422;17.930;2023-04-24T01:08:30;6.70;99.90
44695;DHT22;32845;59.422;17.930;2023-04-24T01:13:01;6.60;99.90
44695;DHT22;32845;59.422;17.930;2023-04-24T01:17:32;6.60;99.90
44695;DHT22;32845;59.422;17.930;2023-04-24T01:22:03;6.50;99.90
44695;DHT22;32845;59.422;17.930;2023-04-24T01:26:35;6.50;99.90
44695;DHT22;32845;59.422;17.930;2023-04-24T01:31:06;6.50;99.90
44695;DHT22;32845;59.422;17.930;2023-04-24T01:35:37;6.40;99.90
44695;DHT22;32845;59.422;17.930;2023-04-24T01:40:08;6.40;99.90
44695;DHT22;32845;59.422;17.930;2023-04-24T01:44:40;6.40;99.90
44695;DHT22;32845;59.422;17.930;2023-04-24T01:49:11;6.40;99.90
44695;DHT22;32845;59.422;17.930;2023-04-24T01:53:41;6.30;99.90
44695;DHT22;32845;59.422;17.930;2023-04-24T01:58:12;6.20;99.90
44695;DHT22;32845;59.422;17.930;2023-04-24T02:02:43;6.20;99.90
44695;DHT22;32845;59.422;17.930;2023-04-24T02:07:14;6.10;99.90
44695;DHT22;32845;59.422;17.930;2023-04-24T02:11:45;6.10;99.90
44695;DHT22;32845;59.422;17.930;2023-04-24T02:16:16;6.00;99.90
44695;DHT22;32845;59.422;17.930;2023-04-24T02:20:47;6.00;99.90
44695;DHT22;32845;59.422;17.930;2023-04-24T02:25:17;6.00;99.90
44695;DHT22;32845;59.422;17.930;2023-04-24T02:29:48;5.90;99.90
44695;DHT22;32845;59.422;17.930;2023-04-24T02:34:18;5.90;99.90
44695;DHT22;32845;59.422;17.930;2023-04-24T02:38:49;5.80;99.90
44695;DHT22;32845;59.422;17.930;2023-04-24T02:43:20;5.80;99.90
44695;DHT22;32845;59.422;17.930;2023-04-24T02:47:51;5.70;99.90
44695;DHT22;32845;59.422;17.930;2023-04-24T02:52:21;5.70;99.90
44695;DHT22;32845;59.422;17.930;2023-04-24T02:56:52;5.70;99.90
44695;DHT22;32845;59.422;17.930;2023-04-24T03:01:23;5.70;99.90
44695;DHT22;32845;59.422;17.930;2023-04-24T03:05:53;5.70;99.90
44695;DHT22;32845;59.422;17.930;2023-04-24T03:10:25;5.70;99.90
44695;DHT22;32845;59.422;17.930;2023-04-24T03:14:56;5.60;99.90
44695;DHT22;32845;59.422;17.930;2023-04-24T03:19:27;5.60;99.90
44695;DHT22;32845;59.422;17.930;2023-04-24T03:23:57;5.60;99.90
44695;DHT22;32845;59.422;17.930;2023-04-24T03:28:28;5.60;99.90
44695;DHT22;32845;59.422;17.930;2023-04-24T03:32:59;5.70;99.90
44695;DHT22;32845;59.422;17.930;2023-04-24T03:37:30;5.60;99.90
44695;DHT22;32845;59.422;17.930;2023-04-24T03:42:01;5.60;99.90
44695;DHT22;32845;59.422;17.930;2023-04-24T03:46:32;5.50;99.90
44695;DHT22;32845;59.422;17.930;2023-04-24T03:51:02;5.50;99.90
44695;DHT22;32845;59.422;17.930;2023-04-24T03:55:33;5.50;99.90
44695;DHT22;32845;59.422;17.930;2023-04-24T04:00:04;5.60;99.90
44695;DHT22;32845;59.422;17.930;2023-04-24T04:04:35;5.60;99.90
44695;DHT22;32845;59.422;17.930;2023-04-24T04:09:06;5.50;99.90
44695;DHT22;32845;59.422;17.930;2023-04-24T04:13:37;5.50;99.90
44695;DHT22;32845;59.422;17.930;2023-04-24T04:18:08;5.40;99.90
44695;DHT22;32845;59.422;17.930;2023-04-24T04:22:39;5.40;99.90
44695;DHT22;32845;59.422;17.930;2023-04-24T04:27:09;5.40;99.90
44695;DHT22;32845;59.422;17.930;2023-04-24T04:31:41;5.40;99.90
44695;DHT22;32845;59.422;17.930;2023-04-24T04:36:12;5.40;99.90
44695;DHT22;32845;59.422;17.930;2023-04-24T04:40:43;5.40;99.90
44695;DHT22;32845;59.422;17.930;2023-04-24T04:45:13;5.40;99.90
44695;DHT22;32845;59.422;17.930;2023-04-24T04:49:47;5.40;99.90
44695;DHT22;32845;59.422;17.930;2023-04-24T04:54:18;5.40;99.90
44695;DHT22;32845;59.422;17.930;2023-04-24T04:58:49;5.50;99.90
44695;DHT22;32845;59.422;17.930;2023-04-24T05:03:20;5.40;99.90
44695;DHT22;32845;59.422;17.930;2023-04-24T05:07:50;5.40;99.90
44695;DHT22;32845;59.422;17.930;2023-04-24T05:12:21;5.40;99.90
44695;DHT22;32845;59.422;17.930;2023-04-24T05:16:52;5.40;99.90
44695;DHT22;32845;59.422;17.930;2023-04-24T05:21:22;5.40;99.90
44695;DHT22;32845;59.422;17.930;2023-04-24T05:25:53;5.40;99.90
44695;DHT22;32845;59.422;17.930;2023-04-24T05:30:24;5.40;99.90
44695;DHT22;32845;59.422;17.930;2023-04-24T05:34:54;5.40;99.90
44695;DHT22;32845;59.422;17.930;2023-04-24T05:39:25;5.40;99.90
44695;DHT22;32845;59.422;17.930;2023-04-24T05:43:56;5.40;99.90
44695;DHT22;32845;59.422;17.930;2023-04-24T05:48:27;5.40;99.90
44695;DHT22;32845;59.422;17.930;2023-04-24T05:52:57;5.40;99.90
44695;DHT22;32845;59.422;17.930;2023-04-24T05:57:28;5.40;99.90
44695;DHT22;32845;59.422;17.930;2023-04-24T06:01:59;5.40;99.90
44695;DHT22;32845;59.422;17.930;2023-04-24T06:06:30;5.40;99.90
44695;DHT22;32845;59.422;17.930;2023-04-24T06:11:01;5.40;99.90
44695;DHT22;32845;59.422;17.930;2023-04-24T06:15:33;5.40;99.90
44695;DHT22;32845;59.422;17.930;2023-04-24T06:20:04;5.40;99.90
44695;DHT22;32845;59.422;17.930;2023-04-24T06:24:36;5.40;99.90
44695;DHT22;32845;59.422;17.930;2023-04-24T06:29:07;5.40;99.90
44695;DHT22;32845;59.422;17.930;2023-04-24T06:33:38;5.40;99.90
44695;DHT22;32845;59.422;17.930;2023-04-24T06:38:08;5.40;99.90
44695;DHT22;32845;59.422;17.930;2023-04-24T06:42:39;5.40;99.90
44695;DHT22;32845;59.422;17.930;2023-04-24T06:47:10;5.40;99.90
44695;DHT22;32845;59.422;17.930;2023-04-24T06:51:41;5.40;99.90
44695;DHT22;32845;59.422;17.930;2023-04-24T06:56:11;5.40;99.90
44695;DHT22;32845;59.422;17.930;2023-04-24T07:00:42;5.40;99.90
44695;DHT22;32845;59.422;17.930;2023-04-24T07:05:13;5.40;99.90
44695;DHT22;32845;59.422;17.930;2023-04-24T07:09:45;5.50;99.90
44695;DHT22;32845;59.422;17.930;2023-04-24T07:14:16;5.50;99.90
44695;DHT22;32845;59.422;17.930;2023-04-24T07:18:47;5.50;99.90
44695;DHT22;32845;59.422;17.930;2023-04-24T07:23:19;5.50;99.90
44695;DHT22;32845;59.422;17.930;2023-04-24T07:27:49;5.50;99.90
44695;DHT22;32845;59.422;17.930;2023-04-24T07:32:20;5.60;99.90
44695;DHT22;32845;59.422;17.930;2023-04-24T07:36:51;5.60;99.90
44695;DHT22;32845;59.422;17.930;2023-04-24T07:41:22;5.60;99.90
44695;DHT22;32845;59.422;17.930;2023-04-24T07:45:54;5.60;99.90
44695;DHT22;32845;59.422;17.930;2023-04-24T07:50:25;5.70;99.90
44695;DHT22;32845;59.422;17.930;2023-04-24T07:54:55;5.80;99.90
44695;DHT22;32845;59.422;17.930;2023-04-24T07:59:30;5.80;99.90
44695;DHT22;32845;59.422;17.930;2023-04-24T08:04:01;5.80;99.90
44695;DHT22;32845;59.422;17.930;2023-04-24T08:08:33;5.90;99.90
44695;DHT22;32845;59.422;17.930;2023-04-24T08:13:04;5.90;99.90
44695;DHT22;32845;59.422;17.930;2023-04-24T08:17:35;6.00;99.90
44695;DHT22;32845;59.422;17.930;2023-04-24T08:22:06;6.00;99.90
44695;DHT22;32845;59.422;17.930;2023-04-24T08:26:36;6.00;99.90
44695;DHT22;32845;59.422;17.930;2023-04-24T08:31:07;6.10;99.90
44695;DHT22;32845;59.422;17.930;2023-04-24T08:35:38;6.10;99.90
44695;DHT22;32845;59.422;17.930;2023-04-24T08:40:13;6.10;99.90
44695;DHT22;32845;59.422;17.930;2023-04-24T08:44:45;6.10;99.90
44695;DHT22;32845;59.422;17.930;2023-04-24T08:49:17;6.20;99.90
44695;DHT22;32845;59.422;17.930;2023-04-24T08:53:48;6.10;99.90
44695;DHT22;32845;59.422;17.930;2023-04-24T08:58:19;6.20;99.90
44695;DHT22;32845;59.422;17.930;2023-04-24T09:02:51;6.20;99.90
44695;DHT22;32845;59.422;17.930;2023-04-24T09:07:24;6.20;99.90
44695;DHT22;32845;59.422;17.930;2023-04-24T09:11:56;6.20;99.90
44695;DHT22;32845;59.422;17.930;2023-04-24T09:16:27;6.20;99.90
44695;DHT22;32845;59.422;17.930;2023-04-24T09:21:00;6.30;99.90
44695;DHT22;32845;59.422;17.930;2023-04-24T09:25:34;6.30;99.90
44695;DHT22;32845;59.422;17.930;2023-04-24T09:30:08;6.30;99.90
44695;DHT22;32845;59.422;17.930;2023-04-24T09:34:39;6.40;99.90
44695;DHT22;32845;59.422;17.930;2023-04-24T09:39:12;6.40;99.90
44695;DHT22;32845;59.422;17.930;2023-04-24T09:43:44;6.50;99.90
44695;DHT22;32845;59.422;17.930;2023-04-24T09:48:14;6.50;99.90
44695;DHT22;32845;59.422;17.930;2023-04-24T09:53:05;6.60;99.90
44695;DHT22;32845;59.422;17.930;2023-04-24T10:02:21;6.80;99.90
44695;DHT22;32845;59.422;17.930;2023-04-24T10:06:55;6.80;99.90
44695;DHT22;32845;59.422;17.930;2023-04-24T10:11:27;6.80;99.90
44695;DHT22;32845;59.422;17.930;2023-04-24T10:15:59;6.80;99.90
44695;DHT22;32845;59.422;17.930;2023-04-24T10:20:30;6.80;99.90
44695;DHT22;32845;59.422;17.930;2023-04-24T10:25:04;6.90;99.90
44695;DHT22;32845;59.422;17.930;2023-04-24T10:29:35;7.00;99.90
44695;DHT22;32845;59.422;17.930;2023-04-24T10:34:08;7.00;99.90
44695;DHT22;32845;59.422;17.930;2023-04-24T10:38:41;6.90;99.90
44695;DHT22;32845;59.422;17.930;2023-04-24T10:43:16;7.00;99.90
44695;DHT22;32845;59.422;17.930;2023-04-24T10:47:58;7.00;99.90
44695;DHT22;32845;59.422;17.930;2023-04-24T10:52:44;7.00;99.90
44695;DHT22;32845;59.422;17.930;2023-04-24T11:01:53;7.20;99.90
44695;DHT22;32845;59.422;17.930;2023-04-24T11:06:36;7.20;99.90
44695;DHT22;32845;59.422;17.930;2023-04-24T11:11:15;7.20;99.90
44695;DHT22;32845;59.422;17.930;2023-04-24T11:15:46;7.30;99.90
44695;DHT22;32845;59.422;17.930;2023-04-24T11:20:42;7.30;99.90
44695;DHT22;32845;59.422;17.930;2023-04-24T11:25:15;7.30;99.90
44695;DHT22;32845;59.422;17.930;2023-04-24T11:29:47;7.40;99.90
44695;DHT22;32845;59.422;17.930;2023-04-24T11:34:20;7.40;99.90
44695;DHT22;32845;59.422;17.930;2023-04-24T11:38:50;7.40;99.90
44695;DHT22;32845;59.422;17.930;2023-04-24T11:43:21;7.50;99.90
44695;DHT22;32845;59.422;17.930;2023-04-24T11:47:53;7.50;99.90
44695;DHT22;32845;59.422;17.930;2023-04-24T11:52:24;7.60;99.90
44695;DHT22;32845;59.422;17.930;2023-04-24T11:56:56;7.50;99.90
44695;DHT22;32845;59.422;17.930;2023-04-24T12:01:26;7.50;99.90
44695;DHT22;32845;59.422;17.930;2023-04-24T12:06:11;7.40;99.90
44695;DHT22;32845;59.422;17.930;2023-04-24T12:10:42;7.40;99.90
44695;DHT22;32845;59.422;17.930;2023-04-24T12:15:12;7.30;99.90
44695;DHT22;32845;59.422;17.930;2023-04-24T12:19:49;7.20;99.90
44695;DHT22;32845;59.422;17.930;2023-04-24T12:24:21;7.10;99.90
44695;DHT22;32845;59.422;17.930;2023-04-24T12:28:51;7.10;99.90
44695;DHT22;32845;59.422;17.930;2023-04-24T12:33:22;7.00;99.90
44695;DHT22;32845;59.422;17.930;2023-04-24T12:37:53;7.00;99.90
44695;DHT22;32845;59.422;17.930;2023-04-24T12:42:28;7.00;99.90
44695;DHT22;32845;59.422;17.930;2023-04-24T12:46:59;7.00;99.90
44695;DHT22;32845;59.422;17.930;2023-04-24T12:51:30;7.00;99.90
44695;DHT22;32845;59.422;17.930;2023-04-24T12:56:01;6.90;99.90
44695;DHT22;32845;59.422;17.930;2023-04-24T13:00:32;6.90;99.90
44695;DHT22;32845;59.422;17.930;2023-04-24T13:05:03;6.90;99.90
44695;DHT22;32845;59.422;17.930;2023-04-24T13:09:34;6.90;99.90
44695;DHT22;32845;59.422;17.930;2023-04-24T13:14:05;6.90;99.90
44695;DHT22;32845;59.422;17.930;2023-04-24T13:18:36;6.90;99.90
44695;DHT22;32845;59.422;17.930;2023-04-24T13:23:07;6.90;99.90
44695;DHT22;32845;59.422;17.930;2023-04-24T13:27:40;6.90;99.90
44695;DHT22;32845;59.422;17.930;2023-04-24T13:32:11;6.80;99.90
44695;DHT22;32845;59.422;17.930;2023-04-24T13:36:42;6.80;99.90
44695;DHT22;32845;59.422;17.930;2023-04-24T13:41:12;6.70;99.90
44695;DHT22;32845;59.422;17.930;2023-04-24T13:45:43;6.70;99.90
44695;DHT22;32845;59.422;17.930;2023-04-24T13:50:14;6.60;99.90
44695;DHT22;32845;59.422;17.930;2023-04-24T13:54:45;6.60;99.90
44695;DHT22;32845;59.422;17.930;2023-04-24T13:59:16;6.60;99.90
44695;DHT22;32845;59.422;17.930;2023-04-24T14:03:46;6.50;99.90
44695;DHT22;32845;59.422;17.930;2023-04-24T14:08:17;6.50;99.90
44695;DHT22;32845;59.422;17.930;2023-04-24T14:12:48;6.50;99.90
44695;DHT22;32845;59.422;17.930;2023-04-24T14:17:18;6.40;99.90
44695;DHT22;32845;59.422;17.930;2023-04-24T14:21:49;6.40;99.90
44695;DHT22;32845;59.422;17.930;2023-04-24T14:26:20;6.40;99.90
44695;DHT22;32845;59.422;17.930;2023-04-24T14:30:50;6.30;99.90
44695;DHT22;32845;59.422;17.930;2023-04-24T14:35:21;6.30;99.90
44695;DHT22;32845;59.422;17.930;2023-04-24T14:39:52;6.30;99.90
44695;DHT22;32845;59.422;17.930;2023-04-24T14:44:23;6.20;99.90
44695;DHT22;32845;59.422;17.930;2023-04-24T14:48:53;6.20;99.90
44695;DHT22;32845;59.422;17.930;2023-04-24T14:53:24;6.30;99.90
44695;DHT22;32845;59.422;17.930;2023-04-24T14:57:55;6.20;99.90
44695;DHT22;32845;59.422;17.930;2023-04-24T15:02:26;6.10;99.90
44695;DHT22;32845;59.422;17.930;2023-04-24T15:06:56;6.00;99.90
44695;DHT22;32845;59.422;17.930;2023-04-24T15:11:27;5.90;99.90
44695;DHT22;32845;59.422;17.930;2023-04-24T15:15:58;5.90;99.90
44695;DHT22;32845;59.422;17.930;2023-04-24T15:20:28;5.80;99.90
44695;DHT22;32845;59.422;17.930;2023-04-24T15:24:59;5.70;99.90
44695;DHT22;32845;59.422;17.930;2023-04-24T15:29:31;5.70;99.90
44695;DHT22;32845;59.422;17.930;2023-04-24T15:34:02;5.70;99.90
44695;DHT22;32845;59.422;17.930;2023-04-24T15:38:32;5.70;99.90
44695;DHT22;32845;59.422;17.930;2023-04-24T15:43:03;5.80;99.90
44695;DHT22;32845;59.422;17.930;2023-04-24T15:47:34;5.90;99.90
44695;DHT22;32845;59.422;17.930;2023-04-24T15:52:05;5.90;99.90
44695;DHT22;32845;59.422;17.930;2023-04-24T15:56:36;5.90;99.90
44695;DHT22;32845;59.422;17.930;2023-04-24T16:01:07;5.90;99.90
44695;DHT22;32845;59.422;17.930;2023-04-24T16:05:38;5.90;99.90
44695;DHT22;32845;59.422;17.930;2023-04-24T16:10:09;5.90;99.90
44695;DHT22;32845;59.422;17.930;2023-04-24T16:14:40;5.80;99.90
44695;DHT22;32845;59.422;17.930;2023-04-24T16:19:11;5.70;99.90
44695;DHT22;32845;59.422;17.930;2023-04-24T16:23:42;5.60;99.90
44695;DHT22;32845;59.422;17.930;2023-04-24T16:28:13;5.60;99.90
44695;DHT22;32845;59.422;17.930;2023-04-24T16:32:44;5.50;99.90
44695;DHT22;32845;59.422;17.930;2023-04-24T16:37:15;5.50;99.90
44695;DHT22;32845;59.422;17.930;2023-04-24T16:41:46;5.50;99.90
44695;DHT22;32845;59.422;17.930;2023-04-24T16:46:19;5.40;99.90
44695;DHT22;32845;59.422;17.930;2023-04-24T16:50:50;5.40;99.90
44695;DHT22;32845;59.422;17.930;2023-04-24T16:55:20;5.30;99.90
44695;DHT22;32845;59.422;17.930;2023-04-24T16:59:51;5.30;99.90
44695;DHT22;32845;59.422;17.930;2023-04-24T17:04:22;5.20;99.90
44695;DHT22;32845;59.422;17.930;2023-04-24T17:08:52;5.20;99.90
44695;DHT22;32845;59.422;17.930;2023-04-24T17:13:23;5.20;99.90
44695;DHT22;32845;59.422;17.930;2023-04-24T17:17:54;5.20;99.90
44695;DHT22;32845;59.422;17.930;2023-04-24T17:22:24;5.30;99.90
44695;DHT22;32845;59.422;17.930;2023-04-24T17:26:56;5.20;99.90
44695;DHT22;32845;59.422;17.930;2023-04-24T17:31:27;5.20;99.90
44695;DHT22;32845;59.422;17.930;2023-04-24T17:35:59;5.20;99.90
44695;DHT22;32845;59.422;17.930;2023-04-24T17:40:33;5.20;99.90
44695;DHT22;32845;59.422;17.930;2023-04-24T17:45:04;5.10;99.90
44695;DHT22;32845;59.422;17.930;2023-04-24T17:49:35;5.10;99.90
44695;DHT22;32845;59.422;17.930;2023-04-24T17:54:07;5.00;99.90
44695;DHT22;32845;59.422;17.930;2023-04-24T17:58:39;5.10;99.90
44695;DHT22;32845;59.422;17.930;2023-04-24T18:03:10;5.10;99.90
44695;DHT22;32845;59.422;17.930;2023-04-24T18:07:40;5.10;99.90
44695;DHT22;32845;59.422;17.930;2023-04-24T18:12:11;5.10;99.90
44695;DHT22;32845;59.422;17.930;2023-04-24T18:16:42;5.00;99.90
44695;DHT22;32845;59.422;17.930;2023-04-24T18:21:12;5.00;99.90
44695;DHT22;32845;59.422;17.930;2023-04-24T18:25:43;5.00;99.90
44695;DHT22;32845;59.422;17.930;2023-04-24T18:30:14;5.00;99.90
44695;DHT22;32845;59.422;17.930;2023-04-24T18:34:45;5.00;99.90
44695;DHT22;32845;59.422;17.930;2023-04-24T18:39:15;4.90;99.90
44695;DHT22;32845;59.422;17.930;2023-04-24T18:43:46;5.00;99.90
44695;DHT22;32845;59.422;17.930;2023-04-24T18:48:17;4.90;99.90
44695;DHT22;32845;59.422;17.930;2023-04-24T18:52:52;5.00;99.90
44695;DHT22;32845;59.422;17.930;2023-04-24T18:57:23;5.00;99.90
44695;DHT22;32845;59.422;17.930;2023-04-24T19:01:54;5.00;99.90
44695;DHT22;32845;59.422;17.930;2023-04-24T19:06:24;5.00;99.90
44695;DHT22;32845;59.422;17.930;2023-04-24T19:10:55;5.00;99.90
44695;DHT22;32845;59.422;17.930;2023-04-24T19:15:26;4.90;99.90
44695;DHT22;32845;59.422;17.930;2023-04-24T19:19:59;4.90;99.90
44695;DHT22;32845;59.422;17.930;2023-04-24T19:24:30;4.90;99.90
44695;DHT22;32845;59.422;17.930;2023-04-24T19:29:02;4.90;99.90
44695;DHT22;32845;59.422;17.930;2023-04-24T19:33:33;4.90;99.90
44695;DHT22;32845;59.422;17.930;2023-04-24T19:38:04;4.90;99.90
44695;DHT22;32845;59.422;17.930;2023-04-24T19:42:35;4.80;99.90
44695;DHT22;32845;59.422;17.930;2023-04-24T19:47:06;4.90;99.90
44695;DHT22;32845;59.422;17.930;2023-04-24T19:51:37;4.80;99.90
44695;DHT22;32845;59.422;17.930;2023-04-24T19:56:08;4.90;99.90
44695;DHT22;32845;59.422;17.930;2023-04-24T20:00:39;4.80;99.90
44695;DHT22;32845;59.422;17.930;2023-04-24T20:05:10;4.80;99.90
44695;DHT22;32845;59.422;17.930;2023-04-24T20:09:41;4.80;99.90
44695;DHT22;32845;59.422;17.930;2023-04-24T20:14:12;4.90;99.90
44695;DHT22;32845;59.422;17.930;2023-04-24T20:18:43;4.90;99.90
44695;DHT22;32845;59.422;17.930;2023-04-24T20:23:14;4.90;99.90
44695;DHT22;32845;59.422;17.930;2023-04-24T20:27:45;4.90;99.90
44695;DHT22;32845;59.422;17.930;2023-04-24T20:32:15;4.90;99.90
44695;DHT22;32845;59.422;17.930;2023-04-24T20:36:46;4.90;99.90
44695;DHT22;32845;59.422;17.930;2023-04-24T20:41:17;4.90;99.90
44695;DHT22;32845;59.422;17.930;2023-04-24T20:45:48;4.90;99.90
44695;DHT22;32845;59.422;17.930;2023-04-24T20:50:19;5.00;99.90
44695;DHT22;32845;59.422;17.930;2023-04-24T20:54:50;4.90;99.90
44695;DHT22;32845;59.422;17.930;2023-04-24T20:59:21;5.00;99.90
44695;DHT22;32845;59.422;17.930;2023-04-24T21:03:51;4.90;99.90
44695;DHT22;32845;59.422;17.930;2023-04-24T21:08:22;5.00;99.90
44695;DHT22;32845;59.422;17.930;2023-04-24T21:12:53;4.90;99.90
44695;DHT22;32845;59.422;17.930;2023-04-24T21:17:23;5.00;99.90
44695;DHT22;32845;59.422;17.930;2023-04-24T21:21:54;5.00;99.90
44695;DHT22;32845;59.422;17.930;2023-04-24T21:26:25;4.90;99.90
44695;DHT22;32845;59.422;17.930;2023-04-24T21:30:55;5.00;99.90
44695;DHT22;32845;59.422;17.930;2023-04-24T21:35:26;5.00;99.90
44695;DHT22;32845;59.422;17.930;2023-04-24T21:39:57;4.90;99.90
44695;DHT22;32845;59.422;17.930;2023-04-24T21:44:27;4.90;99.90
44695;DHT22;32845;59.422;17.930;2023-04-24T21:48:58;4.90;99.90
44695;DHT22;32845;59.422;17.930;2023-04-24T21:53:29;4.90;99.90
44695;DHT22;32845;59.422;17.930;2023-04-24T21:57:59;4.90;99.90
44695;DHT22;32845;59.422;17.930;2023-04-24T22:02:30;4.90;99.90
44695;DHT22;32845;59.422;17.930;2023-04-24T22:07:01;4.80;99.90
44695;DHT22;32845;59.422;17.930;2023-04-24T22:11:32;4.90;99.90
44695;DHT22;32845;59.422;17.930;2023-04-24T22:16:03;4.80;99.90
44695;DHT22;32845;59.422;17.930;2023-04-24T22:20:34;4.80;99.90
44695;DHT22;32845;59.422;17.930;2023-04-24T22:25:05;4.80;99.90
44695;DHT22;32845;59.422;17.930;2023-04-24T22:29:36;4.90;99.90
44695;DHT22;32845;59.422;17.930;2023-04-24T22:34:07;4.90;99.90
44695;DHT22;32845;59.422;17.930;2023-04-24T22:38:38;4.90;99.90
44695;DHT22;32845;59.422;17.930;2023-04-24T22:43:09;4.80;99.90
44695;DHT22;32845;59.422;17.930;2023-04-24T22:47:39;4.90;99.90
44695;DHT22;32845;59.422;17.930;2023-04-24T22:52:11;4.90;99.90
44695;DHT22;32845;59.422;17.930;2023-04-24T22:56:44;4.90;99.90
44695;DHT22;32845;59.422;17.930;2023-04-24T23:01:15;4.80;99.90
44695;DHT22;32845;59.422;17.930;2023-04-24T23:05:46;4.80;99.90
44695;DHT22;32845;59.422;17.930;2023-04-24T23:10:17;4.80;99.90
44695;DHT22;32845;59.422;17.930;2023-04-24T23:14:48;4.80;99.90
44695;DHT22;32845;59.422;17.930;2023-04-24T23:19:18;4.80;99.90
44695;DHT22;32845;59.422;17.930;2023-04-24T23:23:49;4.80;99.90
44695;DHT22;32845;59.422;17.930;2023-04-24T23:28:22;4.80;99.90
44695;DHT22;32845;59.422;17.930;2023-04-24T23:32:52;4.80;99.90
44695;DHT22;32845;59.422;17.930;2023-04-24T23:37:23;4.80;99.90
44695;DHT22;32845;59.422;17.930;2023-04-24T23:41:54;4.80;99.90
44695;DHT22;32845;59.422;17.930;2023-04-24T23:46:25;4.70;99.90
44695;DHT22;32845;59.422;17.930;2023-04-24T23:50:56;4.70;99.90
44695;DHT22;32845;59.422;17.930;2023-04-24T23:55:27;4.70;99.90
44695;DHT22;32845;59.422;17.930;2023-04-24T23:59:58;4.70;99.90
